Terminal Aerodrome Forecast
Issued by NWS

Home | Current Version | Previous Version | Text Only | Print | Product List | Glossary On
Versions: 1 2 3 4 5 6 7 8 9 10 11 12 13 14 15 16 17
386
FTUS45 KRIW 281123
TAFCPR
TAF
KCPR 281123Z 2812/2912 36010KT P6SM BKN015
     FM281600 03007KT P6SM SCT080
     FM282100 04009KT P6SM VCTS SCT060CB BKN120
     FM290300 08010KT P6SM VCSH SCT080 BKN140
     FM290700 VRB06KT P6SM FEW120=

USA.gov is the U.S. government's official web portal to all federal, state and local government web resources and services.